Hlavní strana
METAR-TAF:

METAR-TAF

Letiště :

Henderson City-County Airport

Henderson, Kentucky, Spojené státy americké

zeměpisná šířka: 37-49N, zeměpisná délka: 087-41W, výška: 117 m

Aktuální stav počasí

Zpráva byla vytvořena před 26 minutami, v 01:56 UTC
Jihozápadní vítr 3 kt
Teplota 6°C
Vlhkost vzduchu 75%
Tlak 1019 hPa
Viditelnost: 16.1 km
Zataženo ve výšce 4400 ft

METAR: KEHR 220156Z AUTO 23003KT 10SM OVC044 06/02 A3010 RMK AO2 SLP207 T00560022

Čas: 21:22 (02:22 UTC)


TAF: chybějící

Stav a předpovědi počasí z více než 4 000 letišť (zprávy METAR a TAF).

Červené a žluté tečky na mapě představují dostupné meteorologické stanice.

Když kurzor umístíte na tečku, zobrazí se název stanice.

Pak kliknutím zobrazíte stav a předpověď počasí.

Chcete-li změnit mapu, kliknutím na zelené tlačítko se znaménkem +mapu přiblížíte, kliknutím na zelené tlačítko se znaménkem – mapu oddálíte a kliknutím na zelené šipky přejdete na sousední mapy.


METAR-TAF: